Time;durP1;ratioP1;P1;durP2;ratioP2;P2;SDS_P1;SDS_P2;PMS_P1;PMS_P2;Temp;Humidity;BMP_temperature;BMP_pressure;BME280_temperature;BME280_humidity;BME280_pressure;Samples;Min_cycle;Max_cycle;Signal;HPM_P1;HPM_P2
2022/04/30 00:02:13;;;;;;;5.53;3.50;;;;;;;7.32;78.60;96319.23;1766306;81;21110;-67
2022/04/30 00:04:46;;;;;;;5.10;3.30;;;;;;;7.23;78.77;96318.30;1766397;81;21006;-67
2022/04/30 00:07:18;;;;;;;4.72;2.22;;;;;;;7.21;78.66;96318.31;1765682;81;21042;-67
2022/04/30 00:09:47;;;;;;;4.40;2.37;;;;;;;7.20;78.16;96314.35;1765924;80;21041;-67
2022/04/30 00:12:18;;;;;;;5.17;2.50;;;;;;;7.12;77.89;96318.23;1766347;81;21026;-67
2022/04/30 00:14:50;;;;;;;2.47;1.97;;;;;;;7.01;77.68;96316.00;1766224;81;21480;-67
2022/04/30 00:17:15;;;;;;;2.40;2.00;;;;;;;6.88;77.66;96317.66;1765095;81;21018;-66
2022/04/30 00:19:42;;;;;;;3.20;1.90;;;;;;;6.80;78.03;96308.83;1766261;81;21083;-67
2022/04/30 00:22:10;;;;;;;1.90;1.70;;;;;;;6.72;78.20;96306.15;1766118;81;21026;-67
2022/04/30 00:24:38;;;;;;;2.13;1.80;;;;;;;6.62;78.29;96304.32;1766445;81;21449;-67
2022/04/30 00:27:05;;;;;;;2.37;1.90;;;;;;;6.45;78.77;96307.69;1766298;81;21050;-67
2022/04/30 00:29:32;;;;;;;2.03;1.80;;;;;;;6.42;78.88;96310.70;1766319;81;21061;-66
2022/04/30 00:32:02;;;;;;;2.10;1.90;;;;;;;6.42;78.93;96308.08;1766406;81;21029;-66
2022/04/30 00:34:30;;;;;;;2.40;1.43;;;;;;;6.38;78.60;96310.25;1766313;81;21468;-66
2022/04/30 00:36:58;;;;;;;2.00;1.80;;;;;;;6.25;78.70;96307.95;1766325;81;21065;-66
2022/04/30 00:39:25;;;;;;;2.00;1.67;;;;;;;6.19;78.67;96302.19;1766424;81;20986;-66
2022/04/30 00:41:52;;;;;;;2.97;1.60;;;;;;;6.19;78.61;96307.43;1766136;81;21099;-67
2022/04/30 00:44:21;;;;;;;1.67;1.37;;;;;;;6.15;78.61;96314.83;1766434;81;20998;-67
2022/04/30 00:46:49;;;;;;;2.43;1.70;;;;;;;6.08;78.83;96307.77;1766350;81;21071;-67
2022/04/30 00:49:16;;;;;;;2.37;1.80;;;;;;;5.91;79.31;96314.09;1766161;81;20994;-66
2022/04/30 00:51:43;;;;;;;3.30;1.60;;;;;;;5.81;80.90;96317.03;1766131;81;21041;-66
2022/04/30 00:54:12;;;;;;;3.93;1.70;;;;;;;5.80;81.25;96317.91;1766395;81;21520;-66
2022/04/30 00:56:47;;;;;;;2.10;1.10;;;;;;;5.83;80.52;96319.25;1766110;81;21018;-66
2022/04/30 00:59:17;;;;;;;2.60;1.23;;;;;;;5.87;80.29;96316.22;1766332;81;20990;-66
2022/04/30 01:01:47;;;;;;;1.90;1.50;;;;;;;5.82;80.15;96316.59;1766292;81;21010;-66
2022/04/30 01:04:18;;;;;;;1.47;1.30;;;;;;;5.85;79.99;96311.42;1766269;81;21002;-66
2022/04/30 01:07:02;;;;;;;1.77;1.60;;;;;;;5.79;79.81;96311.33;1766079;81;20995;-66
2022/04/30 01:09:31;;;;;;;;;;;;;;;5.74;79.87;96315.20;1767460;81;21041;-67
2022/04/30 01:12:11;;;;;;;1.50;1.40;;;;;;;5.73;80.07;96316.08;1766362;81;20094;-66
2022/04/30 01:14:40;;;;;;;2.30;1.30;;;;;;;5.67;79.53;96313.80;1766522;81;21053;-67
2022/04/30 01:17:10;;;;;;;4.13;1.80;;;;;;;5.55;80.07;96313.25;1766294;81;20990;-67
2022/04/30 01:19:41;;;;;;;2.43;1.70;;;;;;;5.53;80.28;96313.66;1766283;81;21062;-66
2022/04/30 01:22:20;;;;;;;2.17;1.50;;;;;;;5.57;80.41;96313.72;1765913;81;20983;-67
2022/04/30 01:24:48;;;;;;;3.00;1.80;;;;;;;5.60;80.19;96305.89;1766183;81;21058;-66
2022/04/30 01:27:16;;;;;;;3.60;1.50;;;;;;;5.61;80.05;96306.77;1766278;81;21006;-66
2022/04/30 01:29:44;;;;;;;4.37;1.60;;;;;;;5.60;79.81;96301.97;1766297;81;20998;-66
2022/04/30 01:37:41;;;;;;;2.00;1.40;;;;;;;5.61;80.26;96301.53;1766284;81;21010;-66
2022/04/30 01:40:10;;;;;;;2.60;1.63;;;;;;;5.58;79.26;96298.88;1766367;81;20983;-67
2022/04/30 01:42:49;;;;;;;2.90;1.57;;;;;;;5.42;79.09;96300.44;1766335;81;21481;-66
2022/04/30 01:45:19;;;;;;;4.80;1.70;;;;;;;5.28;79.02;96301.55;1761385;81;20998;-66
2022/04/30 01:47:47;;;;;;;3.37;1.30;;;;;;;5.18;79.39;96295.31;1766290;81;21006;-66
2022/04/30 01:50:16;;;;;;;4.07;1.97;;;;;;;5.05;79.27;96292.52;1766423;81;21504;-67
2022/04/30 01:52:43;;;;;;;2.20;1.37;;;;;;;5.02;79.73;96293.80;1766167;81;20970;-67
2022/04/30 01:55:10;;;;;;;2.17;1.77;;;;;;;4.97;80.03;96294.59;1766631;81;20990;-66
2022/04/30 01:57:42;;;;;;;1.60;1.50;;;;;;;4.98;80.22;96295.03;1766053;81;21075;-66
2022/04/30 02:00:12;;;;;;;1.70;1.60;;;;;;;4.99;80.10;96290.27;1766271;81;21030;-66
2022/04/30 02:02:45;;;;;;;2.37;1.60;;;;;;;4.96;80.15;96286.72;1766711;81;21014;-66
2022/04/30 02:05:17;;;;;;;2.27;1.30;;;;;;;4.80;80.03;96286.06;1766063;81;21603;-67
2022/04/30 02:07:50;;;;;;;2.40;1.40;;;;;;;4.73;80.62;96289.87;1761525;81;21035;-66
2022/04/30 02:10:19;;;;;;;2.03;1.13;;;;;;;4.65;80.44;96286.70;1762603;81;21006;-67
2022/04/30 02:12:48;;;;;;;1.57;1.30;;;;;;;4.63;81.39;96286.67;1762060;81;21057;-66
2022/04/30 02:15:16;;;;;;;1.97;1.60;;;;;;;4.62;80.82;96276.20;1762795;81;21034;-66
2022/04/30 02:17:46;;;;;;;1.77;1.60;;;;;;;4.60;80.66;96276.17;1762740;81;21481;-66
2022/04/30 02:20:18;;;;;;;4.80;1.43;;;;;;;4.58;80.34;96279.19;1762780;81;20983;-67
2022/04/30 02:22:46;;;;;;;1.87;1.60;;;;;;;4.56;80.49;96278.27;1762545;81;21442;-66
2022/04/30 02:25:15;;;;;;;1.40;1.30;;;;;;;4.54;80.19;96277.40;1762718;81;21003;-66
2022/04/30 02:27:45;;;;;;;1.17;1.00;;;;;;;4.51;80.42;96271.70;1762676;81;21058;-67
2022/04/30 02:30:14;;;;;;;2.20;1.47;;;;;;;4.37;80.24;96277.55;1762721;81;21053;-66
2022/04/30 02:32:48;;;;;;;2.67;1.60;;;;;;;4.22;80.12;96271.21;1762618;81;20996;-66
2022/04/30 02:35:19;;;;;;;2.50;1.30;;;;;;;4.23;80.59;96270.77;1762397;81;21038;-66
2022/04/30 02:37:50;;;;;;;1.13;1.03;;;;;;;4.26;81.06;96265.20;1762541;81;21014;-66
2022/04/30 02:40:19;;;;;;;3.07;1.23;;;;;;;4.30;80.93;96264.80;1762640;81;21035;-66
2022/04/30 02:42:46;;;;;;;1.83;1.27;;;;;;;4.21;80.79;96264.23;1762802;81;21046;-66
2022/04/30 02:45:16;;;;;;;1.57;1.17;;;;;;;4.24;81.10;96268.64;1762807;81;21041;-66
2022/04/30 02:47:45;;;;;;;4.70;1.17;;;;;;;4.33;81.26;96266.16;1762566;81;21477;-66
2022/04/30 02:50:15;;;;;;;1.97;1.20;;;;;;;4.27;80.79;96272.59;1762713;81;21046;-66
2022/04/30 02:52:42;;;;;;;1.50;1.40;;;;;;;4.27;81.02;96270.86;1762471;81;21006;-66
2022/04/30 02:55:11;;;;;;;1.87;1.00;;;;;;;4.33;81.35;96270.07;1762367;81;21114;-66
2022/04/30 03:00:44;;;;;;;2.93;1.03;;;;;;;4.49;81.41;96270.78;1762810;81;21046;-66
2022/04/30 03:03:16;;;;;;;1.37;0.93;;;;;;;4.50;80.71;96273.84;1760654;81;21513;-66
2022/04/30 03:05:45;;;;;;;1.60;1.27;;;;;;;4.32;80.57;96272.25;1763284;81;21062;-66
2022/04/30 03:08:15;;;;;;;1.20;1.10;;;;;;;4.27;80.88;96277.82;1766026;81;21026;-67
2022/04/30 03:10:47;;;;;;;1.40;1.20;;;;;;;4.22;80.53;96276.44;1766421;81;21441;-66
2022/04/30 03:13:14;;;;;;;2.83;1.10;;;;;;;4.08;80.77;96275.30;1766357;81;20959;-66
2022/04/30 03:15:44;;;;;;;1.27;1.00;;;;;;;4.14;81.43;96275.87;1766448;81;21061;-67
2022/04/30 03:23:43;;;;;;;2.20;1.20;;;;;;;4.17;80.95;96278.09;1762250;81;21465;-66
2022/04/30 03:26:11;;;;;;;2.00;1.70;;;;;;;4.17;80.86;96275.91;1766478;81;21495;-66
2022/04/30 03:28:40;;;;;;;1.43;1.07;;;;;;;4.12;81.38;96278.44;1766448;81;21038;-66
2022/04/30 03:31:13;;;;;;;1.63;0.97;;;;;;;4.14;81.58;96281.96;1766259;81;21049;-66
2022/04/30 03:33:40;;;;;;;1.87;1.10;;;;;;;4.20;81.64;96280.74;1766472;81;21022;-66
2022/04/30 03:36:09;;;;;;;1.30;1.00;;;;;;;4.30;81.67;96281.78;1766640;81;20995;-65
2022/04/30 03:38:35;;;;;;;1.87;1.30;;;;;;;4.36;81.21;96283.61;1766113;81;21014;-65
2022/04/30 03:41:02;;;;;;;1.57;0.93;;;;;;;4.42;81.20;96285.91;1766445;81;21417;-65
2022/04/30 03:43:30;;;;;;;2.60;1.30;;;;;;;4.36;80.78;96287.13;1766112;81;21431;-66
2022/04/30 03:45:57;;;;;;;1.83;1.33;;;;;;;4.40;80.95;96283.69;1766440;81;21002;-66
2022/04/30 03:48:23;;;;;;;6.23;1.50;;;;;;;4.41;80.74;96285.88;1766458;81;21087;-65
2022/04/30 03:50:50;;;;;;;1.30;1.20;;;;;;;4.41;80.74;96286.78;1766056;81;20999;-65
2022/04/30 03:53:17;;;;;;;1.93;1.03;;;;;;;4.42;80.58;96287.22;1766393;81;20995;-66
2022/04/30 03:55:43;;;;;;;1.23;1.10;;;;;;;4.41;80.14;96287.18;1766463;81;21030;-65
2022/04/30 03:58:10;;;;;;;1.43;0.90;;;;;;;4.34;80.01;96289.70;1766330;81;20978;-66
2022/04/30 04:00:37;;;;;;;1.90;1.60;;;;;;;4.33;80.81;96290.97;1766505;81;20997;-65
2022/04/30 04:03:04;;;;;;;1.20;1.10;;;;;;;4.31;81.89;96286.17;1766485;81;20998;-65
2022/04/30 04:05:31;;;;;;;4.40;2.53;;;;;;;4.31;82.77;96294.02;1766386;81;21019;-66
2022/04/30 04:07:59;;;;;;;2.57;1.90;;;;;;;4.37;82.91;96297.14;1763355;81;21026;-66
2022/04/30 04:10:25;;;;;;;2.47;1.60;;;;;;;4.39;83.13;96294.14;1762862;81;21006;-65
2022/04/30 04:17:37;;;;;;;1.53;1.20;;;;;;;4.45;82.72;96295.53;1762425;81;20987;-66
2022/04/30 04:18:06;;;;;;;3.50;2.37;;;;;;;4.53;83.54;96304.37;1762712;81;20979;-66
2022/04/30 04:20:33;;;;;;;15.27;9.60;;;;;;;4.60;83.89;96310.58;1762354;81;21461;-65
2022/04/30 04:23:00;;;;;;;10.83;6.77;;;;;;;4.67;84.09;96305.47;1762453;81;21011;-65
2022/04/30 04:28:12;;;;;;;13.07;7.20;;;;;;;4.84;83.88;96301.82;1728618;81;21516;-65
2022/04/30 04:30:39;;;;;;;7.03;5.03;;;;;;;4.92;83.71;96308.47;1762731;81;21023;-65
2022/04/30 04:33:05;;;;;;;6.93;4.37;;;;;;;5.03;83.97;96309.92;1762543;81;20987;-65
2022/04/30 04:35:32;;;;;;;7.90;4.93;;;;;;;5.09;84.05;96303.45;1762283;81;21122;-65
2022/04/30 04:37:59;;;;;;;6.13;4.73;;;;;;;5.21;83.98;96304.94;1762399;81;21010;-65
2022/04/30 04:40:26;;;;;;;5.77;4.50;;;;;;;5.38;83.85;96302.55;1762413;81;21050;-65
2022/04/30 04:42:52;;;;;;;5.37;3.43;;;;;;;5.57;83.56;96301.94;1762617;81;21500;-66
2022/04/30 04:45:22;;;;;;;3.27;2.70;;;;;;;5.75;83.16;96296.47;1762879;81;21019;-66
2022/04/30 04:47:50;;;;;;;4.27;2.63;;;;;;;5.96;82.80;96298.03;1762503;81;21030;-66
2022/04/30 04:50:17;;;;;;;3.10;2.40;;;;;;;6.14;82.02;96296.02;1762320;81;21504;-65
2022/04/30 04:52:46;;;;;;;3.90;2.97;;;;;;;6.29;82.00;96293.98;1762297;81;21010;-65
2022/04/30 04:55:14;;;;;;;3.23;2.47;;;;;;;6.51;81.89;96288.51;1762356;81;21062;-65
2022/04/30 04:57:42;;;;;;;3.10;2.80;;;;;;;6.71;81.43;96291.29;1762557;81;20987;-65
2022/04/30 05:00:10;;;;;;;3.27;2.50;;;;;;;6.85;79.82;96288.31;1762480;81;21038;-66
2022/04/30 05:02:37;;;;;;;2.30;2.10;;;;;;;7.04;80.18;96294.58;1762438;81;20994;-66
2022/04/30 05:05:06;;;;;;;4.03;3.60;;;;;;;7.22;79.19;96293.80;1728450;81;21134;-66
2022/04/30 05:07:33;;;;;;;5.33;3.50;;;;;;;7.33;78.32;96292.54;1762081;81;21516;-66
2022/04/30 05:10:00;;;;;;;3.53;2.90;;;;;;;7.45;78.18;96291.30;1762720;81;20999;-66
2022/04/30 05:12:27;;;;;;;3.10;2.70;;;;;;;7.61;78.28;96289.64;1728595;81;20971;-66
2022/04/30 05:14:54;;;;;;;3.83;2.63;;;;;;;7.71;77.16;96287.48;1762220;81;21555;-66
2022/04/30 05:17:21;;;;;;;3.00;2.60;;;;;;;7.84;77.41;96287.09;1762589;81;20966;-66
2022/04/30 05:19:47;;;;;;;3.07;2.30;;;;;;;7.96;77.21;96286.22;1762277;81;20983;-66
2022/04/30 05:22:14;;;;;;;5.97;3.90;;;;;;;8.08;76.23;96277.50;1727752;81;20991;-65
2022/04/30 05:24:41;;;;;;;7.80;4.70;;;;;;;8.18;76.18;96279.27;1762570;81;21007;-66
2022/04/30 05:27:08;;;;;;;10.37;7.33;;;;;;;8.30;76.32;96277.98;1762581;81;21477;-66
2022/04/30 05:29:36;;;;;;;6.27;4.83;;;;;;;8.42;76.22;96275.40;1762487;81;21010;-66
2022/04/30 05:32:04;;;;;;;7.27;4.30;;;;;;;8.56;76.18;96275.39;1762549;81;21039;-65
2022/04/30 05:34:31;;;;;;;7.07;3.60;;;;;;;8.71;75.98;96286.35;1762606;81;21018;-66
2022/04/30 05:36:57;;;;;;;6.00;3.57;;;;;;;8.84;75.76;96284.59;1762399;81;21037;-66
2022/04/30 05:39:26;;;;;;;4.83;3.03;;;;;;;8.97;75.33;96278.45;1762543;81;21548;-66
2022/04/30 05:41:52;;;;;;;7.97;4.13;;;;;;;9.08;75.20;96270.53;1762266;81;21083;-66
2022/04/30 05:44:19;;;;;;;5.40;2.73;;;;;;;9.21;74.98;96281.91;1762462;81;21516;-66
2022/04/30 05:46:45;;;;;;;4.03;2.20;;;;;;;9.32;74.17;96270.90;1762466;81;21532;-65
2022/04/30 05:49:12;;;;;;;2.40;2.17;;;;;;;9.41;73.94;96268.70;1762724;81;21002;-65
2022/04/30 05:51:39;;;;;;;2.70;2.17;;;;;;;9.50;73.69;96276.13;1762499;81;20998;-66
2022/04/30 05:54:07;;;;;;;3.10;2.80;;;;;;;9.58;72.61;96273.91;1762489;81;21030;-66
2022/04/30 05:56:34;;;;;;;2.60;2.40;;;;;;;9.66;72.21;96279.58;1762573;81;21058;-67
2022/04/30 05:59:01;;;;;;;3.27;2.97;;;;;;;9.75;72.72;96278.23;1762487;81;20983;-66
2022/04/30 06:01:28;;;;;;;5.10;3.10;;;;;;;9.85;72.27;96277.75;1762749;81;21010;-65
2022/04/30 06:03:55;;;;;;;4.47;2.60;;;;;;;9.96;72.42;96274.60;1762239;81;21344;-66
2022/04/30 06:06:22;;;;;;;3.33;3.03;;;;;;;10.10;72.40;96276.28;1753516;81;21026;-66
2022/04/30 06:08:49;;;;;;;4.43;2.70;;;;;;;10.20;71.93;96276.66;1762268;81;21046;-66
2022/04/30 06:11:16;;;;;;;3.47;2.43;;;;;;;10.34;71.95;96266.93;1762696;81;21031;-66
2022/04/30 06:13:42;;;;;;;3.50;2.53;;;;;;;10.47;71.62;96271.67;1762767;81;20979;-66
2022/04/30 06:16:09;;;;;;;3.27;2.07;;;;;;;10.58;70.59;96276.86;1762753;81;21049;-65
2022/04/30 06:18:36;;;;;;;3.93;2.00;;;;;;;10.70;70.91;96268.85;1762520;81;21485;-66
2022/04/30 06:21:03;;;;;;;2.80;2.13;;;;;;;10.83;70.54;96277.54;1762469;81;21082;-66
2022/04/30 06:23:29;;;;;;;2.27;1.77;;;;;;;10.97;70.48;96280.94;1762106;81;21025;-66
2022/04/30 06:25:56;;;;;;;3.00;2.00;;;;;;;11.09;68.91;96273.78;1762478;81;21015;-66
2022/04/30 06:28:23;;;;;;;2.00;1.80;;;;;;;11.18;68.87;96273.25;1762625;81;21469;-66
2022/04/30 06:30:50;;;;;;;3.35;2.20;;;;;;;11.29;68.80;96267.88;1762450;81;21033;-66
2022/04/30 06:33:16;;;;;;;5.00;3.50;;;;;;;11.40;67.88;96271.72;1762576;81;20963;-66
2022/04/30 06:35:44;;;;;;;3.65;2.42;;;;;;;11.51;67.57;96263.66;1762285;81;21041;-66
2022/04/30 06:38:11;;;;;;;2.15;1.80;;;;;;;11.63;67.23;96271.00;1762478;81;20967;-66
2022/04/30 06:40:38;;;;;;;9.08;7.12;;;;;;;11.76;67.54;96262.92;1762564;81;21043;-66
2022/04/30 06:43:05;;;;;;;3.90;2.65;;;;;;;11.86;67.17;96263.23;1762566;81;20987;-66
2022/04/30 06:45:32;;;;;;;2.83;1.90;;;;;;;11.98;66.87;96260.92;1762446;81;21482;-66
2022/04/30 06:47:59;;;;;;;3.00;2.60;;;;;;;12.09;66.83;96262.50;1762296;81;20955;-66
2022/04/30 06:50:25;;;;;;;2.87;2.22;;;;;;;12.23;66.58;96266.29;1762525;81;21007;-66
2022/04/30 06:58:22;;;;;;;2.58;2.17;;;;;;;12.41;65.18;96261.63;1762590;81;21050;-66
2022/04/30 07:03:27;;;;;;;3.40;2.42;;;;;;;12.59;64.40;96263.98;1762715;81;21014;-66
2022/04/30 07:06:03;;;;;;;5.97;2.80;;;;;;;12.74;65.69;96260.22;1762719;81;21500;-65
2022/04/30 07:08:34;;;;;;;4.60;2.52;;;;;;;12.87;64.33;96259.56;1764651;81;21069;-66
2022/04/30 07:11:03;;;;;;;3.17;1.92;;;;;;;12.99;63.67;96255.38;1766549;81;21030;-66
2022/04/30 07:13:32;;;;;;;2.52;2.12;;;;;;;13.10;63.90;96252.11;1766393;81;21053;-66
2022/04/30 07:15:59;;;;;;;2.50;2.30;;;;;;;13.25;64.17;96255.36;1766275;81;21026;-66
2022/04/30 07:18:25;;;;;;;5.10;4.60;;;;;;;13.37;64.22;96255.17;1766454;81;21015;-66
2022/04/30 07:20:53;;;;;;;3.35;2.80;;;;;;;13.48;62.76;96257.18;1766173;81;21488;-66
2022/04/30 07:23:20;;;;;;;3.67;2.50;;;;;;;13.62;63.08;96256.89;1766433;81;21010;-66
2022/04/30 07:25:48;;;;;;;2.92;2.58;;;;;;;13.72;62.26;96253.61;1766449;81;21476;-66
2022/04/30 07:28:15;;;;;;;2.92;2.52;;;;;;;13.80;62.69;96252.53;1736352;81;20974;-66
2022/04/30 07:30:42;;;;;;;4.78;2.98;;;;;;;13.89;61.77;96254.59;1766081;81;21125;-66
2022/04/30 07:33:08;;;;;;;3.70;2.67;;;;;;;13.99;61.33;96254.36;1766453;81;21022;-66
2022/04/30 07:35:35;;;;;;;2.52;2.33;;;;;;;14.02;59.31;96255.61;1766071;81;21066;-66
2022/04/30 07:38:02;;;;;;;3.67;2.55;;;;;;;14.13;60.74;96250.06;1766493;81;21030;-66
2022/04/30 07:40:29;;;;;;;5.55;2.80;;;;;;;14.20;59.00;96255.66;1766416;81;21005;-66
2022/04/30 07:42:57;;;;;;;3.10;2.80;;;;;;;14.32;59.76;96253.66;1736415;81;21022;-65
2022/04/30 07:45:24;;;;;;;3.90;2.58;;;;;;;14.41;59.58;96250.34;1766116;81;21074;-66
2022/04/30 07:47:51;;;;;;;3.60;2.30;;;;;;;14.52;59.79;96249.22;1766444;81;21026;-66
2022/04/30 07:50:19;;;;;;;2.90;2.42;;;;;;;14.61;58.35;96245.89;1766268;81;21014;-66
2022/04/30 07:52:45;;;;;;;2.70;2.50;;;;;;;14.74;58.62;96244.27;1766459;81;20982;-66
2022/04/30 07:55:12;;;;;;;4.58;3.60;;;;;;;14.81;57.70;96241.42;1766346;81;20983;-65
2022/04/30 07:57:39;;;;;;;3.40;2.30;;;;;;;14.96;57.84;96241.96;1766343;81;21463;-65
2022/04/30 08:00:08;;;;;;;2.40;2.20;;;;;;;15.05;57.30;96246.59;1766128;81;21129;-66
2022/04/30 08:02:34;;;;;;;2.77;2.12;;;;;;;15.21;58.00;96247.52;1766584;81;21033;-66
2022/04/30 08:05:01;;;;;;;3.40;2.30;;;;;;;15.31;57.97;96247.69;1766359;81;21058;-66
2022/04/30 08:07:28;;;;;;;2.95;1.90;;;;;;;15.45;58.29;96245.53;1765853;81;20987;-66
2022/04/30 08:09:55;;;;;;;3.33;1.98;;;;;;;15.55;56.47;96235.52;1762081;81;21151;-66
2022/04/30 08:12:22;;;;;;;2.62;1.80;;;;;;;15.62;54.04;96238.86;1762491;81;21019;-66
2022/04/30 08:14:50;;;;;;;2.42;1.90;;;;;;;15.64;53.79;96230.38;1762555;81;21002;-66
2022/04/30 08:17:17;;;;;;;2.60;2.00;;;;;;;15.74;54.08;96235.89;1762538;81;21014;-66
2022/04/30 08:19:43;;;;;;;2.40;1.90;;;;;;;15.79;54.06;96229.98;1762607;81;20987;-66
2022/04/30 08:22:10;;;;;;;2.65;1.90;;;;;;;15.95;54.29;96229.06;1762313;81;20998;-66
2022/04/30 08:24:37;;;;;;;2.72;1.60;;;;;;;16.04;51.23;96227.94;1762324;81;21034;-66
2022/04/30 08:27:05;;;;;;;1.80;1.67;;;;;;;16.10;52.43;96225.07;1762730;81;21046;-66
2022/04/30 08:29:31;;;;;;;3.12;2.17;;;;;;;16.21;51.58;96226.50;1762534;81;21015;-66
2022/04/30 08:31:58;;;;;;;3.27;2.17;;;;;;;16.26;51.40;96222.84;1762333;81;21054;-66
2022/04/30 08:34:25;;;;;;;2.52;2.10;;;;;;;16.31;50.55;96218.24;1762614;81;21007;-66
2022/04/30 08:36:51;;;;;;;2.45;1.80;;;;;;;16.44;50.74;96215.59;1762267;81;21039;-66
2022/04/30 08:39:18;;;;;;;3.25;2.62;;;;;;;16.54;51.35;96219.70;1762009;81;21074;-66
2022/04/30 08:41:44;;;;;;;2.37;2.17;;;;;;;16.63;49.56;96207.86;1762588;81;20995;-66
2022/04/30 08:44:17;;;;;;;2.45;2.25;;;;;;;16.68;47.96;96209.91;1762493;81;21575;-66
2022/04/30 08:46:46;;;;;;;1.90;1.63;;;;;;;16.72;49.29;96221.37;1762796;81;21038;-66
2022/04/30 08:49:13;;;;;;;2.58;1.92;;;;;;;16.84;50.32;96208.53;1762316;81;21058;-66
2022/04/30 08:51:39;;;;;;;2.12;1.82;;;;;;;16.91;47.62;96203.88;1762710;81;21062;-66
2022/04/30 08:54:07;;;;;;;2.30;1.60;;;;;;;16.90;47.14;96205.25;1728681;81;21101;-66
2022/04/30 08:56:36;;;;;;;2.75;1.40;;;;;;;17.04;48.58;96204.34;1762518;81;21460;-66
2022/04/30 08:59:05;;;;;;;2.67;1.70;;;;;;;17.09;47.42;96201.91;1762500;81;21014;-66
2022/04/30 09:01:49;;;;;;;1.62;1.50;;;;;;;17.16;48.04;96195.02;1762539;81;20979;-66
2022/04/30 09:04:17;;;;;;;2.12;1.92;;;;;;;17.34;46.10;96194.83;1762536;81;21019;-66
2022/04/30 09:06:48;;;;;;;1.50;1.35;;;;;;;17.52;45.83;96187.52;1762334;81;21062;-66
2022/04/30 09:09:28;;;;;;;2.35;1.40;;;;;;;17.62;44.82;96186.73;1761390;81;21074;-66
2022/04/30 09:12:07;;;;;;;2.60;2.33;;;;;;;17.78;46.10;96181.20;1762635;81;21026;-66
2022/04/30 09:14:34;;;;;;;1.90;1.42;;;;;;;17.88;44.58;96185.77;1762581;81;21476;-66
2022/04/30 09:17:07;;;;;;;2.85;2.40;;;;;;;17.97;45.54;96177.42;1762458;81;21038;-66
2022/04/30 09:19:56;;;;;;;2.42;1.70;;;;;;;17.78;39.27;96181.20;1762729;81;21046;-66
2022/04/30 09:22:35;;;;;;;2.70;1.52;;;;;;;17.88;44.51;96175.09;1761595;81;21026;-66
2022/04/30 09:25:07;;;;;;;2.27;2.08;;;;;;;18.08;45.09;96172.52;1762481;81;21057;-66
2022/04/30 09:27:48;;;;;;;1.85;1.67;;;;;;;18.24;44.15;96168.77;1762631;81;21029;-66
2022/04/30 09:30:32;;;;;;;2.90;1.67;;;;;;;18.23;44.22;96175.06;1761265;81;21066;-66
2022/04/30 09:33:06;;;;;;;2.20;1.40;;;;;;;18.01;43.60;96171.48;1760909;81;21034;-66
2022/04/30 09:38:25;;;;;;;2.10;1.70;;;;;;;18.11;44.29;96165.72;1762624;81;20966;-66
2022/04/30 09:40:57;;;;;;;3.20;1.57;;;;;;;18.40;44.01;96162.85;1753502;81;21023;-66
2022/04/30 09:43:33;;;;;;;1.55;1.45;;;;;;;18.26;41.38;96159.37;1762611;81;20998;-66
2022/04/30 09:46:08;;;;;;;1.92;1.60;;;;;;;18.12;42.04;96155.46;1762468;81;21500;-66
2022/04/30 09:54:07;;;;;;;2.33;2.02;;;;;;;18.80;42.26;96146.94;1762618;81;20958;-66
2022/04/30 09:56:37;;;;;;;4.60;1.50;;;;;;;18.98;43.32;96143.94;1762500;81;21023;-66
2022/04/30 09:59:10;;;;;;;1.57;1.47;;;;;;;19.34;41.61;96142.40;1762540;81;20990;-66
2022/04/30 10:01:42;;;;;;;1.85;1.60;;;;;;;19.71;38.82;96130.93;1728726;81;21532;-66
2022/04/30 10:04:11;;;;;;;3.37;1.72;;;;;;;19.53;37.53;96123.69;1762450;81;21043;-66
2022/04/30 10:06:43;;;;;;;1.57;1.47;;;;;;;19.56;40.59;96131.13;1762482;81;21496;-66
2022/04/30 10:09:17;;;;;;;2.72;1.80;;;;;;;19.89;39.36;96133.22;1762306;81;21050;-67
2022/04/30 10:12:00;;;;;;;1.92;1.60;;;;;;;19.77;37.74;96135.13;1762583;81;21492;-66
2022/04/30 10:14:55;;;;;;;2.52;1.67;;;;;;;19.42;36.09;96133.07;1762614;81;21054;-66
2022/04/30 10:17:29;;;;;;;1.90;1.47;;;;;;;19.13;37.50;96127.70;1762554;81;21026;-66
2022/04/30 10:20:16;;;;;;;2.35;1.62;;;;;;;18.81;37.24;96137.09;1762566;81;21049;-66
2022/04/30 10:22:59;;;;;;;2.22;1.67;;;;;;;18.96;39.03;96119.06;1762306;81;21002;-66
2022/04/30 10:25:44;;;;;;;2.67;1.60;;;;;;;19.14;34.87;96118.72;1762260;81;21062;-66
2022/04/30 10:28:24;;;;;;;2.00;1.80;;;;;;;19.20;36.72;96113.56;1762512;81;21033;-66
2022/04/30 10:31:03;;;;;;;2.42;1.47;;;;;;;19.24;37.62;96112.03;1762452;81;21010;-66
2022/04/30 10:33:31;;;;;;;2.33;1.50;;;;;;;19.43;40.24;96105.87;1762602;81;20982;-66
2022/04/30 10:36:12;;;;;;;2.15;1.57;;;;;;;19.85;39.45;96099.00;1762362;81;21082;-66
2022/04/30 10:38:40;;;;;;;1.55;1.35;;;;;;;20.33;40.55;96099.40;1762722;81;21026;-66
2022/04/30 10:41:11;;;;;;;1.82;1.60;;;;;;;20.74;38.25;96100.06;1762522;81;21019;-66
2022/04/30 10:43:42;;;;;;;2.02;1.50;;;;;;;20.67;36.05;96107.16;1763237;81;21034;-66
2022/04/30 10:46:21;;;;;;;1.70;1.60;;;;;;;20.13;37.15;96107.06;1762577;81;21006;-66
2022/04/30 10:48:48;;;;;;;2.40;1.57;;;;;;;19.71;38.35;96112.19;1762656;81;21058;-66
2022/04/30 10:51:38;;;;;;;1.70;1.60;;;;;;;19.20;37.31;96112.22;1762565;81;20998;-67
2022/04/30 10:54:18;;;;;;;2.40;1.70;;;;;;;19.01;38.53;96105.50;1763107;81;21500;-67
2022/04/30 10:56:45;;;;;;;3.12;1.80;;;;;;;18.67;40.12;96121.63;1762419;81;21536;-66
2022/04/30 10:59:24;;;;;;;2.37;1.52;;;;;;;18.40;39.16;96106.74;1762550;81;21061;-66
2022/04/30 11:01:51;;;;;;;3.17;1.57;;;;;;;18.29;38.88;96108.02;1762761;81;21006;-66
2022/04/30 11:04:20;;;;;;;2.17;1.70;;;;;;;18.05;38.32;96107.70;1762746;81;21014;-66
2022/04/30 11:06:52;;;;;;;2.02;1.70;;;;;;;17.87;38.02;96109.30;1704523;81;21029;-66
2022/04/30 11:09:21;;;;;;;1.92;1.30;;;;;;;17.76;38.81;96104.31;1762404;81;21505;-66
2022/04/30 11:11:50;;;;;;;3.15;2.00;;;;;;;17.73;39.33;96106.64;1762703;81;21014;-66
2022/04/30 11:14:19;;;;;;;4.12;1.82;;;;;;;17.73;38.57;96105.31;1762591;81;21501;-66
2022/04/30 11:16:52;;;;;;;3.17;1.70;;;;;;;17.66;36.69;96096.27;1762676;81;21042;-66
2022/04/30 11:19:23;;;;;;;2.55;2.12;;;;;;;17.56;40.04;96099.74;1762811;81;21014;-67
2022/04/30 11:21:52;;;;;;;2.40;1.37;;;;;;;17.57;40.02;96100.17;1762613;81;21050;-66
2022/04/30 11:24:28;;;;;;;1.40;1.20;;;;;;;17.55;39.83;96103.83;1762202;81;21098;-66
2022/04/30 11:27:04;;;;;;;2.33;1.77;;;;;;;17.48;39.94;96099.17;1762545;81;21003;-66
2022/04/30 11:29:32;;;;;;;1.95;1.40;;;;;;;17.44;39.55;96094.90;1762816;81;21014;-66
2022/04/30 11:32:00;;;;;;;1.92;1.45;;;;;;;17.51;40.04;96095.05;1762678;81;21019;-66
2022/04/30 11:34:27;;;;;;;2.50;1.70;;;;;;;17.41;37.76;96081.66;1762625;81;21476;-66
2022/04/30 11:37:00;;;;;;;3.62;1.55;;;;;;;17.34;36.96;96082.37;1762751;81;20994;-66
2022/04/30 11:39:28;;;;;;;1.95;1.40;;;;;;;17.41;39.11;96075.87;1762608;81;21022;-66
2022/04/30 11:41:56;;;;;;;1.45;1.35;;;;;;;17.47;39.15;96077.44;1762498;81;21058;-66
2022/04/30 11:44:25;;;;;;;2.27;1.70;;;;;;;17.52;38.80;96076.33;1762785;81;21070;-66
2022/04/30 11:46:54;;;;;;;1.80;1.47;;;;;;;17.60;38.56;96073.84;1762688;81;21453;-66
2022/04/30 11:49:26;;;;;;;1.92;1.45;;;;;;;17.77;38.76;96070.52;1762660;81;20991;-67
2022/04/30 11:51:56;;;;;;;1.67;1.47;;;;;;;17.95;37.53;96063.14;1762741;81;21062;-66
2022/04/30 11:54:25;;;;;;;2.85;1.50;;;;;;;18.89;39.13;96058.76;1762766;81;21503;-65
2022/04/30 11:56:52;;;;;;;1.42;1.30;;;;;;;19.52;36.26;96049.70;1762462;81;21042;-66
2022/04/30 11:59:41;;;;;;;3.08;2.00;;;;;;;20.56;37.02;96040.65;1762577;81;21038;-67
2022/04/30 12:02:08;;;;;;;2.25;2.00;;;;;;;21.48;32.38;96043.03;1761790;81;21030;-68
2022/04/30 12:04:37;;;;;;;3.08;1.70;;;;;;;22.41;33.38;96032.39;1762621;81;21050;-67
2022/04/30 12:07:06;;;;;;;1.80;1.70;;;;;;;23.24;29.93;96031.97;1762564;81;21026;-67
2022/04/30 12:09:39;;;;;;;3.33;1.52;;;;;;;23.83;30.28;96027.34;1762643;81;21026;-68
2022/04/30 12:12:21;;;;;;;4.17;2.62;;;;;;;24.27;28.11;96028.98;1766396;81;20955;-67
2022/04/30 12:14:54;;;;;;;1.47;1.30;;;;;;;24.19;26.96;96020.05;1766704;81;21017;-67
2022/04/30 12:17:32;;;;;;;2.05;1.70;;;;;;;24.67;28.33;96014.66;1766246;81;21045;-67
2022/04/30 12:25:52;;;;;;;1.47;1.37;;;;;;;25.89;27.91;96012.84;1766364;81;20963;-67
2022/04/30 12:28:19;;;;;;;2.22;1.40;;;;;;;25.57;27.94;96019.69;1765989;81;21438;-67
2022/04/30 12:30:55;;;;;;;1.85;1.40;;;;;;;25.26;27.18;96013.27;1766222;81;21079;-68